Time;durP1;ratioP1;P1;durP2;ratioP2;P2;SDS_P1;SDS_P2;PMS_P1;PMS_P2;Temp;Humidity;BMP_temperature;BMP_pressure;BME280_temperature;BME280_humidity;BME280_pressure;Samples;Min_cycle;Max_cycle;Signal;HPM_P1;HPM_P2
2022/09/26 00:01:48;;;;;;;6.20;3.20;;;9.00;1.00;;;;;;5093847;28;20449;-47
2022/09/26 00:04:23;;;;;;;61.63;46.07;;;9.00;1.00;;;;;;5094248;28;20181;-47
2022/09/26 00:06:50;;;;;;;13.03;8.80;;;9.00;1.00;;;;;;5093967;28;20208;-46
2022/09/26 00:09:17;;;;;;;15.00;9.23;;;9.00;1.00;;;;;;5094804;28;20419;-47
2022/09/26 00:11:43;;;;;;;7.07;3.87;;;9.00;1.00;;;;;;5093555;28;20411;-46
2022/09/26 00:14:15;;;;;;;3.60;3.00;;;9.00;1.00;;;;;;5076110;28;20423;-46
2022/09/26 00:16:41;;;;;;;6.63;3.00;;;9.10;1.00;;;;;;5093152;28;20935;-48
2022/09/26 00:19:07;;;;;;;10.80;3.00;;;9.10;1.00;;;;;;5093589;28;20459;-47
2022/09/26 00:21:34;;;;;;;8.00;3.40;;;9.10;1.00;;;;;;5094506;28;20200;-47
2022/09/26 00:24:01;;;;;;;12.30;3.93;;;9.10;1.00;;;;;;5093689;28;20429;-47
2022/09/26 00:26:29;;;;;;;28.93;15.03;;;9.00;1.00;;;;;;5093319;28;20433;-46
2022/09/26 00:28:56;;;;;;;14.47;5.97;;;9.00;1.00;;;;;;5093944;28;20898;-47
2022/09/26 00:31:30;;;;;;;8.90;3.53;;;9.00;1.00;;;;;;5093693;28;20490;-46
2022/09/26 00:33:57;;;;;;;29.57;16.23;;;9.00;1.00;;;;;;5092531;28;20529;-48
2022/09/26 00:36:23;;;;;;;11.30;3.47;;;9.00;1.00;;;;;;5090673;28;20501;-46
2022/09/26 00:38:49;;;;;;;5.57;2.90;;;9.00;1.00;;;;;;5090468;28;20431;-47
2022/09/26 00:41:15;;;;;;;7.43;3.43;;;9.10;1.00;;;;;;5070707;28;20431;-46
2022/09/26 00:43:50;;;;;;;4.60;2.90;;;9.10;1.00;;;;;;5092434;28;20478;-47
2022/09/26 00:46:22;;;;;;;7.80;3.03;;;9.10;1.00;;;;;;5085766;28;20426;-46
2022/09/26 00:48:53;;;;;;;9.53;3.53;;;9.10;1.00;;;;;;5084993;28;20443;-47
2022/09/26 00:51:19;;;;;;;7.23;3.30;;;9.10;1.00;;;;;;5089173;28;20498;-47
2022/09/26 00:53:48;;;;;;;10.03;4.23;;;9.10;1.00;;;;;;5090072;28;20806;-47
2022/09/26 00:56:25;;;;;;;5.70;3.03;;;9.10;1.00;;;;;;5089254;28;20222;-47
2022/09/26 00:58:54;;;;;;;5.87;3.50;;;9.10;1.00;;;;;;5088090;28;20454;-46
2022/09/26 01:01:20;;;;;;;6.37;3.10;;;9.10;1.00;;;;;;5074644;28;20501;-47
2022/09/26 01:03:48;;;;;;;8.33;3.00;;;9.10;1.00;;;;;;5072800;28;20536;-47
2022/09/26 01:06:16;;;;;;;4.60;3.00;;;9.10;1.00;;;;;;5087841;28;20455;-47
2022/09/26 01:08:54;;;;;;;10.57;3.60;;;9.10;1.00;;;;;;5085121;28;20532;-46
2022/09/26 01:11:20;;;;;;;11.50;3.60;;;9.10;1.00;;;;;;5082719;28;20447;-47
2022/09/26 01:13:47;;;;;;;7.60;3.33;;;9.20;1.00;;;;;;5083141;28;20922;-47
2022/09/26 01:16:13;;;;;;;11.27;3.63;;;9.20;1.00;;;;;;5089243;28;20475;-47
2022/09/26 01:18:39;;;;;;;6.93;3.50;;;9.20;1.00;;;;;;5091103;28;21298;-47
2022/09/26 01:21:42;;;;;;;8.37;3.97;;;9.20;1.00;;;;;;5080367;28;20552;-47
2022/09/26 01:24:17;;;;;;;10.43;4.17;;;9.20;1.00;;;;;;5088431;28;20449;-46
2022/09/26 01:27:24;;;;;;;9.67;3.33;;;9.20;1.00;;;;;;5088514;28;20512;-46
2022/09/26 01:30:10;;;;;;;9.20;4.00;;;9.20;1.00;;;;;;5086320;28;20955;-46
2022/09/26 01:32:47;;;;;;;12.90;4.23;;;9.20;1.00;;;;;;5089899;28;20562;-46
2022/09/26 01:35:36;;;;;;;11.93;3.90;;;9.20;1.00;;;;;;5086949;28;20937;-47
2022/09/26 01:38:26;;;;;;;7.73;3.37;;;9.30;1.00;;;;;;5085828;28;21222;-47
2022/09/26 01:41:20;;;;;;;9.20;4.50;;;9.30;1.00;;;;;;5079602;28;20846;-47
2022/09/26 01:44:14;;;;;;;5.07;3.30;;;9.30;1.00;;;;;;5072979;28;20446;-46
2022/09/26 01:47:19;;;;;;;4.87;3.53;;;9.40;1.00;;;;;;5070304;28;20967;-47
2022/09/26 01:50:00;;;;;;;10.23;3.27;;;9.40;1.00;;;;;;5071823;28;21116;-46
2022/09/26 01:52:47;;;;;;;13.67;4.20;;;9.40;1.00;;;;;;5073236;28;21028;-47
2022/09/26 01:55:22;;;;;;;11.13;3.70;;;9.40;1.00;;;;;;5070215;28;20916;-47
2022/09/26 01:58:14;;;;;;;8.00;3.30;;;9.50;1.00;;;;;;5071977;28;20445;-47
2022/09/26 02:00:44;;;;;;;11.13;3.60;;;9.50;1.00;;;;;;5062226;28;20453;-47
2022/09/26 02:03:13;;;;;;;4.50;3.70;;;9.50;1.00;;;;;;5071233;28;20439;-47
2022/09/26 02:06:03;;;;;;;5.80;3.10;;;9.50;1.00;;;;;;5072082;28;20435;-47
2022/09/26 02:08:36;;;;;;;4.37;3.33;;;9.50;1.00;;;;;;5077390;28;20447;-47
2022/09/26 02:11:15;;;;;;;7.33;3.40;;;9.50;1.00;;;;;;5072808;28;20454;-47
2022/09/26 02:13:56;;;;;;;7.00;3.27;;;9.50;1.00;;;;;;5071842;28;20597;-47
2022/09/26 02:16:34;;;;;;;7.67;3.67;;;9.50;1.00;;;;;;5077792;28;20467;-47
2022/09/26 02:19:09;;;;;;;7.80;3.83;;;9.50;1.00;;;;;;5071866;28;20518;-47
2022/09/26 02:21:35;;;;;;;7.13;3.40;;;9.50;1.00;;;;;;5077914;28;20476;-47
2022/09/26 02:24:01;;;;;;;8.47;4.30;;;9.50;1.00;;;;;;5076089;28;21538;-47
2022/09/26 02:26:28;;;;;;;8.80;4.30;;;9.50;1.00;;;;;;5076855;28;20928;-47
2022/09/26 02:28:55;;;;;;;6.60;4.20;;;9.50;1.00;;;;;;5077658;28;20546;-47
2022/09/26 02:31:24;;;;;;;8.17;3.87;;;9.50;1.00;;;;;;5072283;28;20427;-47
2022/09/26 02:33:51;;;;;;;12.57;3.50;;;9.50;1.00;;;;;;5074852;28;20435;-46
2022/09/26 02:36:19;;;;;;;8.30;3.63;;;9.50;1.00;;;;;;5072361;28;20459;-47
2022/09/26 02:38:45;;;;;;;22.93;3.70;;;9.50;1.00;;;;;;5071015;28;20471;-47
2022/09/26 02:41:20;;;;;;;6.37;4.17;;;9.50;1.00;;;;;;5076371;28;20868;-46
2022/09/26 02:44:21;;;;;;;6.60;4.20;;;9.50;1.00;;;;;;5075571;28;20748;-47
2022/09/26 02:47:15;;;;;;;6.93;3.90;;;9.50;1.00;;;;;;5080631;28;20841;-47
2022/09/26 02:49:56;;;;;;;7.13;3.60;;;9.60;1.00;;;;;;5069737;28;20461;-47
2022/09/26 02:53:03;;;;;;;5.57;3.60;;;9.60;1.00;;;;;;5075343;28;20486;-47
2022/09/26 02:56:12;;;;;;;5.60;2.93;;;9.60;1.00;;;;;;5033467;28;20486;-49
2022/09/26 02:58:58;;;;;;;8.10;3.30;;;9.60;1.00;;;;;;5071378;28;20434;-47
2022/09/26 03:01:56;;;;;;;5.97;3.73;;;9.60;1.00;;;;;;5071130;28;20431;-47
2022/09/26 03:04:46;;;;;;;7.20;3.90;;;9.60;1.00;;;;;;5060184;28;20458;-47
2022/09/26 03:07:38;;;;;;;11.17;3.80;;;9.70;1.00;;;;;;5084128;28;21677;-47
2022/09/26 03:10:07;;;;;;;11.03;3.57;;;9.60;1.00;;;;;;5086958;28;20488;-47
2022/09/26 03:12:34;;;;;;;7.10;4.17;;;9.70;1.00;;;;;;5085610;28;20493;-47
2022/09/26 03:15:02;;;;;;;6.83;4.10;;;9.70;1.00;;;;;;5086230;28;20485;-47
2022/09/26 03:17:33;;;;;;;12.67;3.17;;;9.70;1.00;;;;;;5087868;28;20462;-47
2022/09/26 03:20:13;;;;;;;7.27;3.33;;;9.70;1.00;;;;;;5086230;28;20427;-47
2022/09/26 03:22:41;;;;;;;9.93;4.33;;;9.70;1.00;;;;;;5085878;28;20488;-47
2022/09/26 03:25:08;;;;;;;5.67;3.50;;;9.80;1.00;;;;;;5086836;28;20729;-47
2022/09/26 03:27:36;;;;;;;12.80;3.80;;;9.80;1.00;;;;;;5086513;28;20454;-47
2022/09/26 03:30:03;;;;;;;6.50;3.53;;;9.80;1.00;;;;;;5091715;28;20443;-47
2022/09/26 03:32:29;;;;;;;5.90;3.70;;;9.70;1.00;;;;;;5091792;28;20825;-47
2022/09/26 03:34:55;;;;;;;7.03;4.10;;;9.70;1.00;;;;;;5090552;28;20431;-47
2022/09/26 03:37:21;;;;;;;7.47;3.60;;;9.70;1.00;;;;;;5086125;28;20213;-47
2022/09/26 03:39:46;;;;;;;6.63;3.13;;;9.70;1.00;;;;;;5090707;28;20495;-47
2022/09/26 03:42:13;;;;;;;6.27;3.43;;;9.80;1.00;;;;;;5090482;28;20189;-47
2022/09/26 03:44:39;;;;;;;9.23;4.00;;;9.80;1.00;;;;;;5088773;28;20185;-48
2022/09/26 03:47:05;;;;;;;5.10;3.37;;;9.80;1.00;;;;;;5085303;28;20440;-47
2022/09/26 03:49:30;;;;;;;5.70;3.40;;;9.80;1.00;;;;;;5079242;28;20181;-47
2022/09/26 03:51:56;;;;;;;6.23;3.53;;;9.80;1.00;;;;;;5076729;28;20483;-47
2022/09/26 03:54:22;;;;;;;6.23;3.90;;;9.80;1.00;;;;;;5073673;28;20214;-47
2022/09/26 03:56:48;;;;;;;8.20;3.90;;;9.70;1.00;;;;;;5074438;28;20574;-47
2022/09/26 03:59:13;;;;;;;7.83;3.93;;;9.80;1.00;;;;;;5074754;28;20431;-47
2022/09/26 04:01:40;;;;;;;9.60;3.60;;;9.80;1.00;;;;;;5074393;28;20307;-47
2022/09/26 04:04:06;;;;;;;5.60;3.83;;;9.80;1.00;;;;;;5074946;28;21032;-47
2022/09/26 04:06:31;;;;;;;5.30;4.20;;;9.80;1.00;;;;;;5078256;28;20435;-47
2022/09/26 04:08:57;;;;;;;4.80;3.77;;;9.80;1.00;;;;;;5080005;28;21845;-47
2022/09/26 04:11:23;;;;;;;7.07;4.27;;;9.90;1.00;;;;;;5083971;28;20193;-47
2022/09/26 04:13:49;;;;;;;7.73;3.80;;;9.90;1.00;;;;;;5087444;28;20228;-47
2022/09/26 04:16:15;;;;;;;5.13;3.87;;;9.90;1.00;;;;;;5088759;28;20497;-47
2022/09/26 04:18:41;;;;;;;6.23;3.87;;;9.90;99.90;;;;;;5089586;28;20435;-47
2022/09/26 04:21:12;;;;;;;7.50;4.00;;;9.90;1.00;;;;;;5090856;28;20430;-46
2022/09/26 04:23:39;;;;;;;6.30;3.90;;;10.00;1.00;;;;;;5084481;28;20258;-47
2022/09/26 04:26:10;;;;;;;5.53;3.70;;;10.00;99.90;;;;;;5091569;28;21226;-46
2022/09/26 04:28:37;;;;;;;7.40;4.10;;;10.10;99.90;;;;;;5088943;28;20453;-46
2022/09/26 04:31:05;;;;;;;8.47;4.10;;;10.10;99.90;;;;;;5088255;28;20430;-47
2022/09/26 04:33:32;;;;;;;5.10;3.93;;;10.10;99.90;;;;;;5088763;28;20450;-47
2022/09/26 04:36:04;;;;;;;5.70;3.77;;;10.10;99.90;;;;;;5089198;28;21385;-47
2022/09/26 04:38:33;;;;;;;8.07;3.73;;;10.20;99.90;;;;;;5090275;28;20796;-47
2022/09/26 04:41:18;;;;;;;16.83;4.73;;;10.10;99.90;;;;;;5089508;28;20958;-46
2022/09/26 04:43:44;;;;;;;7.07;4.13;;;10.20;99.90;;;;;;5087453;28;20932;-47
2022/09/26 04:46:15;;;;;;;8.27;4.27;;;10.20;99.90;;;;;;5090088;28;21031;-46
2022/09/26 04:48:41;;;;;;;7.47;3.83;;;10.20;99.90;;;;;;5089436;28;20450;-47
2022/09/26 04:51:10;;;;;;;4.40;3.43;;;10.20;99.90;;;;;;5089602;28;22243;-47
2022/09/26 04:53:37;;;;;;;6.07;4.33;;;10.10;99.90;;;;;;5089064;28;20439;-47
2022/09/26 04:56:03;;;;;;;7.20;4.20;;;10.10;99.90;;;;;;5087582;28;20463;-56
2022/09/26 04:58:30;;;;;;;9.70;4.70;;;10.10;99.90;;;;;;5089361;28;20446;-47
2022/09/26 05:01:00;;;;;;;9.50;4.30;;;10.10;99.90;;;;;;5087935;28;20437;-46
2022/09/26 05:03:28;;;;;;;5.37;3.13;;;10.10;99.90;;;;;;5086124;28;20436;-49
2022/09/26 05:05:54;;;;;;;4.73;4.17;;;10.10;99.90;;;;;;5088869;28;20479;-47
2022/09/26 05:08:22;;;;;;;4.20;3.50;;;10.10;99.90;;;;;;5089217;28;20491;-47
2022/09/26 05:10:52;;;;;;;5.97;4.43;;;10.10;99.90;;;;;;5071143;28;20454;-47
2022/09/26 05:13:18;;;;;;;5.23;4.00;;;10.10;99.90;;;;;;5087367;28;20514;-47
2022/09/26 05:15:44;;;;;;;12.13;3.83;;;10.10;99.90;;;;;;5086805;28;20612;-54
2022/09/26 05:18:10;;;;;;;10.00;3.97;;;10.20;99.90;;;;;;5089123;28;20443;-47
2022/09/26 05:20:37;;;;;;;4.60;4.03;;;10.20;99.90;;;;;;5090911;28;20188;-48
2022/09/26 05:23:06;;;;;;;7.17;4.27;;;10.20;99.90;;;;;;5088823;28;20968;-48
2022/09/26 05:28:24;;;;;;;4.40;3.60;;;10.20;99.90;;;;;;5086535;28;20478;-47
2022/09/26 05:30:51;;;;;;;6.93;4.20;;;10.20;99.90;;;;;;5089524;28;20963;-47
2022/09/26 05:33:18;;;;;;;5.83;4.20;;;10.20;99.90;;;;;;5089452;28;20765;-47
2022/09/26 05:35:47;;;;;;;7.30;4.40;;;10.30;94.30;;;;;;5088288;28;20510;-47
2022/09/26 05:38:13;;;;;;;8.30;3.33;;;10.30;74.60;;;;;;5087766;28;20845;-47
2022/09/26 05:40:57;;;;;;;8.00;3.20;;;10.40;43.00;;;;;;5087406;28;20541;-47
2022/09/26 05:43:31;;;;;;;4.83;3.60;;;10.40;3.60;;;;;;5087580;28;20193;-47
2022/09/26 05:45:58;;;;;;;4.50;3.70;;;10.40;1.00;;;;;;5088699;28;20446;-48
2022/09/26 05:48:25;;;;;;;5.97;3.87;;;10.40;1.00;;;;;;5085266;28;21006;-48
2022/09/26 05:50:51;;;;;;;7.87;3.40;;;10.40;1.00;;;;;;5087277;28;20490;-47
2022/09/26 05:53:16;;;;;;;4.33;3.13;;;10.40;1.00;;;;;;5070262;28;20462;-47
2022/09/26 05:55:42;;;;;;;7.17;3.37;;;10.40;1.00;;;;;;5088388;28;20209;-48
2022/09/26 05:58:08;;;;;;;7.73;3.50;;;10.50;1.00;;;;;;5087187;28;20189;-47
2022/09/26 06:00:34;;;;;;;5.47;3.30;;;10.50;1.00;;;;;;5086548;28;20665;-49
2022/09/26 06:03:02;;;;;;;5.70;3.30;;;10.50;1.00;;;;;;5088645;28;20504;-47
2022/09/26 06:05:28;;;;;;;6.63;3.10;;;10.50;1.00;;;;;;5089159;28;20982;-47
2022/09/26 06:07:54;;;;;;;9.70;3.20;;;10.50;1.00;;;;;;5086342;28;20455;-48
2022/09/26 06:10:20;;;;;;;7.10;3.83;;;10.60;1.00;;;;;;5088658;28;20456;-47
2022/09/26 06:12:46;;;;;;;7.00;3.20;;;10.70;99.90;;;;;;5086929;28;20446;-46
2022/09/26 06:15:14;;;;;;;5.50;3.33;;;10.70;99.90;;;;;;5086885;28;20677;-47
2022/09/26 06:17:40;;;;;;;7.33;3.40;;;10.70;99.90;;;;;;5088809;28;20177;-48
2022/09/26 06:20:06;;;;;;;6.40;3.37;;;10.70;99.90;;;;;;5085978;28;20919;-47
2022/09/26 06:22:41;;;;;;;7.90;4.20;;;10.80;99.90;;;;;;5085467;28;20474;-48
2022/09/26 06:25:08;;;;;;;9.07;3.87;;;10.80;94.20;;;;;;5087101;28;20446;-47
2022/09/26 06:27:37;;;;;;;4.33;3.20;;;10.90;99.90;;;;;;5088280;28;20761;-47
2022/09/26 06:30:05;;;;;;;5.77;3.50;;;10.90;1.00;;;;;;5087922;28;20442;-47
2022/09/26 06:32:31;;;;;;;5.30;3.60;;;10.90;1.00;;;;;;5083972;28;21210;-48
2022/09/26 06:34:56;;;;;;;4.03;3.40;;;10.90;1.00;;;;;;5088564;28;20504;-48
2022/09/26 06:37:22;;;;;;;4.43;3.77;;;10.90;1.00;;;;;;5086660;28;20584;-49
2022/09/26 06:39:48;;;;;;;7.63;3.87;;;10.90;1.00;;;;;;5086782;28;20193;-47
2022/09/26 06:42:13;;;;;;;9.03;3.70;;;11.00;1.00;;;;;;5086459;28;20238;-43
2022/09/26 06:44:39;;;;;;;13.30;3.63;;;11.00;1.00;;;;;;5086900;28;20189;-45
2022/09/26 06:47:04;;;;;;;12.93;3.67;;;11.10;99.90;;;;;;5085707;28;20204;-47
2022/09/26 06:49:31;;;;;;;8.23;3.70;;;11.20;99.90;;;;;;5089210;28;20270;-48
2022/09/26 06:51:56;;;;;;;5.77;4.00;;;11.30;1.00;;;;;;5085995;28;20248;-48
2022/09/26 06:54:22;;;;;;;9.40;4.27;;;11.30;1.00;;;;;;5084661;28;21074;-47
2022/09/26 06:56:48;;;;;;;8.97;3.77;;;11.20;1.00;;;;;;5086424;28;20295;-47
2022/09/26 06:59:15;;;;;;;10.23;4.10;;;11.30;1.00;;;;;;5087015;28;20699;-48
2022/09/26 07:01:41;;;;;;;5.60;3.90;;;11.30;5.40;;;;;;5086675;28;20177;-47
2022/09/26 07:04:07;;;;;;;5.33;3.90;;;11.40;1.00;;;;;;5085791;28;20663;-47
2022/09/26 07:06:33;;;;;;;7.20;3.93;;;11.40;1.00;;;;;;5064684;28;20273;-47
2022/09/26 07:08:59;;;;;;;6.33;3.80;;;11.50;1.00;;;;;;5069842;28;20198;-48
2022/09/26 07:11:27;;;;;;;7.90;4.10;;;11.50;1.00;;;;;;5087076;28;20470;-48
2022/09/26 07:13:53;;;;;;;6.53;3.90;;;11.50;99.90;;;;;;5087811;28;20193;-48
2022/09/26 07:16:19;;;;;;;12.20;4.73;;;11.60;1.00;;;;;;5087248;28;20489;-48
2022/09/26 07:18:45;;;;;;;5.23;3.47;;;11.70;1.00;;;;;;5086335;28;20186;-49
2022/09/26 07:21:10;;;;;;;6.50;3.90;;;11.70;99.90;;;;;;5084709;28;20430;-48
2022/09/26 07:23:36;;;;;;;6.20;3.50;;;11.70;99.90;;;;;;5087366;28;20939;-48
2022/09/26 07:26:02;;;;;;;6.53;3.90;;;11.70;99.90;;;;;;5087056;28;20605;-48
2022/09/26 07:28:28;;;;;;;6.47;3.40;;;11.70;99.90;;;;;;5088763;28;20645;-48
2022/09/26 07:30:58;;;;;;;8.37;3.60;;;11.60;1.00;;;;;;5087377;28;20535;-48
2022/09/26 07:33:24;;;;;;;6.30;3.60;;;11.60;99.90;;;;;;5085524;28;20443;-48
2022/09/26 07:35:49;;;;;;;6.50;3.20;;;11.50;99.90;;;;;;5086343;28;20465;-47
2022/09/26 07:38:15;;;;;;;5.47;3.40;;;11.50;99.90;;;;;;5087264;28;20185;-47
2022/09/26 07:40:44;;;;;;;5.10;3.17;;;11.50;1.00;;;;;;5086391;28;20271;-48
2022/09/26 07:43:10;;;;;;;5.33;3.60;;;11.50;1.00;;;;;;5085731;28;20185;-47
2022/09/26 07:51:05;;;;;;;5.83;4.10;;;11.60;64.50;;;;;;5084146;28;20989;-48
2022/09/26 07:53:31;;;;;;;4.80;4.10;;;11.60;39.30;;;;;;5087780;28;20443;-49
2022/09/26 07:56:09;;;;;;;5.43;4.17;;;11.60;1.00;;;;;;5083055;28;20225;-45
2022/09/26 07:58:40;;;;;;;6.40;4.30;;;11.60;1.00;;;;;;5084692;28;20445;-45
2022/09/26 08:01:13;;;;;;;5.67;3.90;;;11.70;84.30;;;;;;5065693;28;20431;-45
2022/09/26 08:03:46;;;;;;;4.37;3.60;;;11.70;1.00;;;;;;5079632;28;21023;-45
2022/09/26 08:06:13;;;;;;;8.80;4.33;;;11.70;1.00;;;;;;5086171;28;20781;-46
2022/09/26 08:08:40;;;;;;;8.30;4.80;;;11.80;1.00;;;;;;5086823;28;20916;-45
2022/09/26 08:11:15;;;;;;;9.13;5.00;;;11.90;99.90;;;;;;5086569;28;20478;-45
2022/09/26 08:13:44;;;;;;;8.70;5.00;;;12.00;1.00;;;;;;5087047;28;20447;-45
2022/09/26 08:16:13;;;;;;;8.03;4.33;;;12.10;99.90;;;;;;5086879;28;20544;-45
2022/09/26 08:18:38;;;;;;;9.63;4.80;;;12.10;1.00;;;;;;5089714;28;20435;-46
2022/09/26 08:21:05;;;;;;;9.77;4.90;;;12.20;99.90;;;;;;5085763;28;20481;-46
2022/09/26 08:23:32;;;;;;;6.73;4.97;;;12.20;1.00;;;;;;5088035;28;20196;-46
2022/09/26 08:25:58;;;;;;;7.00;5.03;;;12.30;99.90;;;;;;5089946;28;20434;-46
2022/09/26 08:28:26;;;;;;;8.13;5.77;;;12.30;1.00;;;;;;5091944;28;21350;-48
2022/09/26 08:30:51;;;;;;;15.70;5.67;;;12.30;1.00;;;;;;5082980;28;20714;-49
2022/09/26 08:33:17;;;;;;;13.23;5.70;;;12.30;99.90;;;;;;5086255;28;20446;-48
2022/09/26 08:35:44;;;;;;;11.87;5.90;;;12.40;1.00;;;;;;5090904;28;20220;-48
2022/09/26 08:38:09;;;;;;;9.17;6.10;;;12.50;17.60;;;;;;5082129;28;20488;-47
2022/09/26 08:40:59;;;;;;;26.23;16.40;;;12.70;99.90;;;;;;5087138;28;20430;-49
2022/09/26 08:43:43;;;;;;;14.23;6.50;;;12.90;1.00;;;;;;5086873;28;20201;-47
2022/09/26 08:49:16;;;;;;;9.40;6.10;;;13.10;99.90;;;;;;5089238;28;20522;-49
2022/09/26 08:51:48;;;;;;;10.13;6.03;;;13.20;99.90;;;;;;5082090;28;20503;-48
2022/09/26 08:54:17;;;;;;;15.40;6.60;;;13.30;99.90;;;;;;5090287;28;20443;-48
2022/09/26 08:56:49;;;;;;;9.17;6.43;;;13.40;99.90;;;;;;5087191;28;20463;-48
2022/09/26 08:59:23;;;;;;;10.77;6.97;;;13.50;1.00;;;;;;5089850;28;20441;-47
2022/09/26 09:01:52;;;;;;;11.67;7.17;;;13.50;99.90;;;;;;5086514;28;20426;-48
2022/09/26 09:04:48;;;;;;;7.50;6.70;;;13.40;99.90;;;;;;5085627;28;20767;-48
2022/09/26 09:07:25;;;;;;;10.57;6.70;;;13.40;1.00;;;;;;5085633;28;20435;-48
2022/09/26 09:09:55;;;;;;;13.23;7.73;;;13.50;1.00;;;;;;5087911;28;20541;-48
2022/09/26 09:12:57;;;;;;;14.27;7.00;;;13.50;1.00;;;;;;5089444;28;20444;-48
2022/09/26 09:15:34;;;;;;;10.57;7.00;;;13.60;1.00;;;;;;5089385;28;20529;-47
2022/09/26 09:18:29;;;;;;;13.83;7.40;;;13.70;1.00;;;;;;5086813;28;20442;-48
2022/09/26 09:21:16;;;;;;;12.70;6.43;;;13.90;1.00;;;;;;5087757;28;20488;-53
2022/09/26 09:23:52;;;;;;;8.40;6.30;;;14.00;1.00;;;;;;5088884;28;20439;-49
2022/09/26 09:26:30;;;;;;;8.83;6.87;;;14.00;1.00;;;;;;5088230;28;20439;-48
2022/09/26 09:29:14;;;;;;;12.40;7.30;;;14.00;1.00;;;;;;5087652;28;20815;-48
2022/09/26 09:31:43;;;;;;;8.00;6.87;;;13.90;1.00;;;;;;5089756;28;20455;-48
2022/09/26 09:34:24;;;;;;;9.43;7.03;;;13.90;1.00;;;;;;5087689;28;20448;-48
2022/09/26 09:36:56;;;;;;;9.03;6.77;;;14.00;1.00;;;;;;5088544;28;20464;-48
2022/09/26 09:39:27;;;;;;;10.93;6.40;;;14.00;1.00;;;;;;5084816;28;20817;-48
2022/09/26 09:42:05;;;;;;;8.60;7.13;;;14.00;1.00;;;;;;5088088;28;20439;-47
2022/09/26 09:44:47;;;;;;;8.63;6.80;;;13.90;1.00;;;;;;5087163;28;20885;-48
2022/09/26 09:47:15;;;;;;;13.17;6.70;;;13.70;1.00;;;;;;5087820;28;20430;-48
2022/09/26 09:49:42;;;;;;;7.90;5.50;;;13.60;1.00;;;;;;5087954;28;20431;-48
2022/09/26 09:52:39;;;;;;;8.80;5.63;;;13.70;1.00;;;;;;5087126;28;20486;-49
2022/09/26 09:55:26;;;;;;;11.53;6.10;;;13.70;1.00;;;;;;5089015;28;20446;-49
2022/09/26 09:58:14;;;;;;;6.27;5.27;;;13.70;1.00;;;;;;5086522;28;20442;-48
2022/09/26 10:00:46;;;;;;;7.40;5.30;;;13.60;1.00;;;;;;5088266;28;20434;-48
2022/09/26 10:03:25;;;;;;;6.67;4.90;;;13.70;1.00;;;;;;5086862;28;20525;-48
2022/09/26 10:05:59;;;;;;;5.60;4.43;;;13.80;1.00;;;;;;5087088;28;20443;-48
2022/09/26 10:08:30;;;;;;;6.20;4.40;;;14.00;1.00;;;;;;5087711;28;20434;-48
2022/09/26 10:11:02;;;;;;;6.80;4.10;;;14.20;1.00;;;;;;5088261;28;21264;-47
2022/09/26 10:13:31;;;;;;;6.03;4.37;;;14.20;1.00;;;;;;5087598;28;20447;-48
2022/09/26 10:16:04;;;;;;;5.60;4.37;;;14.00;1.00;;;;;;5088207;28;20474;-48
2022/09/26 10:18:30;;;;;;;7.80;4.60;;;14.00;1.00;;;;;;5085636;28;20442;-48
2022/09/26 10:21:17;;;;;;;6.07;4.07;;;14.00;1.00;;;;;;5089468;28;20780;-48
2022/09/26 10:23:48;;;;;;;5.80;4.23;;;13.90;1.00;;;;;;5088502;28;20438;-48
2022/09/26 10:26:15;;;;;;;8.27;4.77;;;14.00;1.00;;;;;;5087132;28;20438;-48
2022/09/26 10:28:56;;;;;;;5.40;4.83;;;14.10;1.00;;;;;;5087546;28;20439;-49
2022/09/26 10:31:42;;;;;;;7.13;4.07;;;14.20;1.00;;;;;;5083259;28;20447;-48
2022/09/26 10:34:24;;;;;;;14.40;4.90;;;14.30;1.00;;;;;;5083022;28;20447;-48
2022/09/26 10:36:50;;;;;;;11.00;4.30;;;14.40;1.00;;;;;;5083422;28;20962;-48
2022/09/26 10:42:12;;;;;;;8.20;4.80;;;14.40;1.00;;;;;;5081952;28;21394;-48
2022/09/26 10:44:37;;;;;;;5.40;4.30;;;14.60;1.00;;;;;;5083451;28;20442;-48
2022/09/26 10:47:07;;;;;;;6.40;4.20;;;14.60;1.00;;;;;;5084395;28;20444;-48
2022/09/26 10:49:45;;;;;;;7.23;4.20;;;14.60;1.00;;;;;;5071114;28;20686;-48
2022/09/26 10:52:17;;;;;;;7.00;3.43;;;14.70;1.00;;;;;;5070518;28;20468;-54
2022/09/26 10:54:59;;;;;;;7.20;3.80;;;14.60;1.00;;;;;;5081965;28;20488;-48
2022/09/26 10:57:33;;;;;;;5.70;4.03;;;14.60;1.00;;;;;;5090508;28;20486;-48
2022/09/26 11:00:00;;;;;;;4.30;3.53;;;14.60;1.00;;;;;;5091100;28;20464;-49
2022/09/26 11:02:27;;;;;;;7.93;3.90;;;14.60;1.00;;;;;;5086788;28;20458;-48
2022/09/26 11:07:46;;;;;;;5.97;4.20;;;14.80;1.00;;;;;;5090899;28;20437;-47
2022/09/26 11:10:17;;;;;;;12.20;3.70;;;14.90;1.00;;;;;;5090687;28;20430;-50
2022/09/26 11:13:01;;;;;;;9.70;4.40;;;15.00;1.00;;;;;;5089819;28;20892;-47
2022/09/26 11:15:28;;;;;;;6.43;4.07;;;15.00;1.00;;;;;;5090624;28;20969;-47
2022/09/26 11:17:54;;;;;;;9.70;4.57;;;15.00;1.00;;;;;;5090251;28;20450;-49
2022/09/26 11:20:24;;;;;;;4.27;3.83;;;14.90;1.00;;;;;;5091001;28;20464;-48
2022/09/26 11:23:34;;;;;;;4.20;3.80;;;14.80;1.00;;;;;;5089877;28;20403;-48
2022/09/26 11:26:16;;;;;;;7.87;4.00;;;14.60;1.00;;;;;;5020183;28;20474;-48
2022/09/26 11:29:05;;;;;;;11.43;5.00;;;14.30;1.00;;;;;;5090594;28;20418;-48
2022/09/26 11:31:39;;;;;;;9.50;4.63;;;14.00;1.00;;;;;;5089375;28;20443;-48
2022/09/26 11:34:12;;;;;;;7.10;4.67;;;13.80;1.00;;;;;;5090598;28;20422;-48
2022/09/26 11:37:11;;;;;;;12.63;5.30;;;13.60;1.00;;;;;;5089944;28;20952;-53
2022/09/26 11:40:01;;;;;;;12.53;5.70;;;13.40;1.00;;;;;;5089690;28;20438;-48
2022/09/26 11:42:45;;;;;;;7.63;5.57;;;13.30;1.00;;;;;;5088005;28;21048;-48
2022/09/26 11:45:39;;;;;;;9.07;5.83;;;13.20;1.00;;;;;;5088977;28;20923;-48
2022/09/26 11:48:30;;;;;;;10.43;6.70;;;13.20;1.00;;;;;;5090212;28;20431;-48
2022/09/26 11:51:14;;;;;;;11.50;5.63;;;13.10;1.00;;;;;;5092261;28;20573;-48
2022/09/26 11:53:51;;;;;;;7.63;6.23;;;13.00;1.00;;;;;;5093841;28;20894;-48
2022/09/26 11:56:44;;;;;;;10.20;6.20;;;12.90;1.00;;;;;;5094444;28;20799;-48
2022/09/26 11:59:28;;;;;;;8.93;5.70;;;13.00;24.10;;;;;;5093559;28;20857;-47
2022/09/26 12:02:04;;;;;;;6.60;5.17;;;12.90;51.70;;;;;;5094189;28;20429;-48
2022/09/26 12:04:48;;;;;;;9.10;5.83;;;12.80;34.70;;;;;;5093300;28;20477;-48
2022/09/26 12:07:37;;;;;;;8.57;6.20;;;12.60;53.50;;;;;;5093965;28;20904;-48
2022/09/26 12:10:24;;;;;;;6.50;5.87;;;12.60;99.90;;;;;;5086587;28;20442;-48
2022/09/26 12:13:04;;;;;;;8.73;5.60;;;12.60;99.90;;;;;;5093570;28;20818;-47
2022/09/26 12:15:45;;;;;;;6.83;6.13;;;12.60;1.00;;;;;;5094074;28;20421;-47
2022/09/26 12:18:12;;;;;;;7.60;5.80;;;12.60;1.00;;;;;;5093080;28;20465;-48
2022/09/26 12:20:49;;;;;;;8.87;6.00;;;12.70;1.00;;;;;;5093975;28;20430;-47
2022/09/26 12:23:23;;;;;;;7.07;5.90;;;12.80;1.00;;;;;;5093750;28;20713;-47
2022/09/26 12:25:53;;;;;;;11.10;6.87;;;12.80;99.90;;;;;;5093139;28;20491;-46
2022/09/26 12:28:40;;;;;;;12.73;7.20;;;12.90;1.00;;;;;;5092973;28;20481;-47
2022/09/26 12:31:16;;;;;;;9.13;6.80;;;12.90;1.00;;;;;;5086365;28;20431;-46
2022/09/26 12:34:04;;;;;;;13.00;6.50;;;13.00;99.90;;;;;;5093675;28;20407;-46
2022/09/26 12:36:51;;;;;;;8.10;6.23;;;13.10;99.90;;;;;;5093940;28;20995;-46
2022/09/26 12:39:50;;;;;;;7.70;5.50;;;13.10;99.90;;;;;;5089901;28;20434;-46
2022/09/26 12:42:23;;;;;;;9.00;5.97;;;13.20;99.90;;;;;;5072980;28;20874;-46
2022/09/26 12:45:15;;;;;;;9.17;5.17;;;13.10;99.90;;;;;;5085762;28;20500;-46
2022/09/26 12:47:51;;;;;;;6.93;5.93;;;13.20;99.90;;;;;;5093748;28;20502;-46
2022/09/26 12:50:30;;;;;;;7.03;5.47;;;13.20;99.90;;;;;;5086012;28;20440;-45
2022/09/26 12:53:01;;;;;;;10.33;5.20;;;13.20;75.20;;;;;;5092323;28;20921;-45
2022/09/26 12:55:38;;;;;;;6.50;5.10;;;13.10;25.40;;;;;;5090053;28;20942;-46
2022/09/26 12:58:15;;;;;;;7.70;5.10;;;13.10;99.90;;;;;;5089019;28;20521;-45
2022/09/26 13:01:10;;;;;;;9.50;5.00;;;13.20;99.90;;;;;;5089554;28;20471;-46
2022/09/26 13:03:59;;;;;;;5.90;4.43;;;13.30;88.90;;;;;;5087076;28;20427;-46
2022/09/26 13:06:43;;;;;;;6.70;4.43;;;13.30;64.10;;;;;;5077774;28;20447;-46
2022/09/26 13:09:27;;;;;;;5.90;4.87;;;13.20;59.40;;;;;;5073398;28;20488;-46
2022/09/26 13:12:21;;;;;;;8.33;4.23;;;13.20;99.90;;;;;;5089186;28;20521;-45
2022/09/26 13:15:03;;;;;;;5.47;3.87;;;13.10;92.80;;;;;;5086605;28;20519;-45
2022/09/26 13:17:34;;;;;;;7.13;4.20;;;13.10;96.30;;;;;;5088750;28;20469;-49
2022/09/26 13:20:13;;;;;;;14.20;4.80;;;13.20;99.90;;;;;;5088945;28;20496;-47
2022/09/26 13:22:46;;;;;;;4.90;4.40;;;13.20;99.90;;;;;;5086907;28;20449;-48
2022/09/26 13:25:20;;;;;;;7.30;4.17;;;13.20;36.10;;;;;;5092746;28;20422;-48
2022/09/26 13:27:46;;;;;;;4.73;4.33;;;13.20;91.90;;;;;;5093284;28;20829;-47
2022/09/26 13:30:17;;;;;;;5.50;3.70;;;13.20;36.70;;;;;;5092019;28;20459;-48
2022/09/26 13:33:02;;;;;;;5.90;3.60;;;13.20;99.90;;;;;;5092668;28;20177;-48
2022/09/26 13:35:34;;;;;;;7.63;4.60;;;13.30;99.90;;;;;;5091721;28;20466;-47
2022/09/26 13:38:34;;;;;;;8.10;4.60;;;13.30;54.60;;;;;;5092437;28;20880;-47
2022/09/26 13:40:59;;;;;;;8.63;4.53;;;13.30;51.80;;;;;;5085992;28;20523;-48
2022/09/26 13:43:42;;;;;;;4.10;3.57;;;13.20;25.80;;;;;;5091683;28;20535;-48
2022/09/26 13:46:31;;;;;;;5.70;4.23;;;13.20;9.50;;;;;;5092284;28;20204;-47